Cathma — PJTL — position and weather

sailwx.info

Track history (hours):
 
Tides and Currents Weather Stations Pressure Air Temp Water Temp Dewpoint Dewpoint Depression Visibility Wind Speed Wind Dir Waves Ship Positions

Cathma

Last reported at 2016-Jul-29 11:24 UTC. Time now 2016-Jul-30 20:40 UTC.
Position N 59°35' E 021°14'.

Length 112 m; draft 6.5 m.

Type: Cargo ship. MMSI: 306832000.

Date/timePositionNaut miles runAvg speedWind from/ knotsBaromVisibWave heightAir tempDewpointWater temp
2016-Jul-29 11:24N 59°35' E 021°14'910.4
2016-Jul-29 10:33N 59°35' E 021°31'1010.5
2016-Jul-29 09:34N 59°36' E 021°52'3310.7
2016-Jul-29 06:29N 59°38' E 022°57'1010.6
2016-Jul-29 05:34N 59°39' E 023°16'1110.7
2016-Jul-29 04:33N 59°42' E 023°37'1111.0
2016-Jul-29 03:34N 59°44' E 023°58'6710.7
2016-Jul-28 21:20N 59°58' E 026°08'910.9
2016-Jul-28 20:30N 60°00' E 026°26'1010.7
2016-Jul-28 19:33N 60°01' E 026°46'2410.5
2016-Jul-28 17:15N 60°08' E 027°32'811.1
2016-Jul-28 16:33N 60°12' E 027°45'1111.1
2016-Jul-28 15:33N 60°09' E 028°07'1111.0
2016-Jul-28 14:33N 60°04' E 028°27'1111.0
2016-Jul-28 13:33N 60°03' E 028°48'3110.4
2016-Jul-28 10:33N 59°57' E 029°50'1010.1
2016-Jul-28 09:33N 59°54' E 030°09'2 1.4
2016-Jul-28 08:28N 59°53' E 030°11'0 0.1
2016-Jul-28 07:33N 59°53' E 030°11'0 0.0
2016-Jul-28 06:30N 59°53' E 030°11'0 0.0
2016-Jul-28 05:32N 59°53' E 030°11'0 0.1
2016-Jul-28 04:32N 59°53' E 030°11'0 0.0
2016-Jul-28 03:29N 59°53' E 030°11'0 0.0
2016-Jul-28 02:31N 59°53' E 030°11'0 0.0
2016-Jul-28 01:31N 59°53' E 030°11'0 0.0
2016-Jul-28 00:33N 59°53' E 030°11'0 0.0
2016-Jul-27 23:33N 59°53' E 030°11'0 0.0
2016-Jul-27 22:32N 59°53' E 030°11'0 0.0
2016-Jul-27 21:29N 59°53' E 030°11'0 0.0
2016-Jul-27 20:32N 59°53' E 030°11'0 0.0
2016-Jul-27 19:31N 59°53' E 030°11'0 0.0
2016-Jul-27 18:31N 59°53' E 030°11'0 0.0
2016-Jul-27 17:33N 59°53' E 030°11'0 0.0
2016-Jul-27 16:33N 59°53' E 030°11'0 0.1
2016-Jul-27 15:32N 59°53' E 030°11'2 2.3
2016-Jul-27 14:33N 59°54' E 030°07'1111.1
2016-Jul-27 13:33N 59°58' E 029°47'1110.9
2016-Jul-27 12:33N 60°01' E 029°26'3 0.8
2016-Jul-27 08:32N 60°01' E 029°19'0 0.0
2016-Jul-27 00:17N 60°01' E 029°19'0 0.0
2016-Jul-26 22:19N 60°01' E 029°19'0 0.0
2016-Jul-26 21:13N 60°01' E 029°19'0 0.0
2016-Jul-26 15:31N 60°01' E 029°19'0 0.0
2016-Jul-26 13:06N 60°01' E 029°19'0 0.1
2016-Jul-26 12:28N 60°01' E 029°19'6 6.4
2016-Jul-26 11:34N 60°02' E 029°08'1110.7
2016-Jul-26 10:33N 60°02' E 028°46'1110.8
2016-Jul-26 09:33N 60°03' E 028°25'1010.4
2016-Jul-26 08:33N 60°08' E 028°06'1110.6
2016-Jul-26 07:33N 60°10' E 027°46'1110.7
2016-Jul-26 06:33N 60°05' E 027°27'1110.5
2016-Jul-26 05:33N 59°59' E 027°09'1010.0
2016-Jul-26 04:33N 59°59' E 026°49'1010.1
2016-Jul-26 03:34N 59°58' E 026°29'1010.3
2016-Jul-26 02:34N 59°55' E 026°09'1010.3
2016-Jul-26 01:33N 59°52' E 025°50'1010.5
2016-Jul-26 00:33N 59°50' E 025°29'1110.7
2016-Jul-25 23:34N 59°48' E 025°08'1110.6
2016-Jul-25 22:34N 59°46' E 024°48'1110.4
2016-Jul-25 21:31N 59°44' E 024°27'9 9.8
2016-Jul-25 20:33N 59°41' E 024°09'1010.0
2016-Jul-25 19:33N 59°38' E 023°50'1010.3
2016-Jul-25 18:33N 59°34' E 023°31'1010.5
2016-Jul-25 17:33N 59°31' E 023°11'33710.8
2016-Jul-24 10:19N 55°41' E 015°33'1011.6
2016-Jul-24 09:28N 55°36' E 015°17'1011.3
2016-Jul-24 08:33N 55°31' E 015°02'1111.2
2016-Jul-24 07:33N 55°25' E 014°44'1111.2
2016-Jul-24 06:34N 55°18' E 014°30'1110.6
2016-Jul-24 05:34N 55°11' E 014°16'1111.1
2016-Jul-24 04:33N 55°11' E 013°56'1111.1
2016-Jul-24 03:33N 55°12' E 013°37'1110.9
2016-Jul-24 02:33N 55°13' E 013°18'1111.0
2016-Jul-24 01:33N 55°15' E 012°58'1111.0
2016-Jul-24 00:33N 55°17' E 012°40'1010.4
2016-Jul-23 23:33N 55°28' E 012°41'1010.4
2016-Jul-23 22:33N 55°38' E 012°42'10 9.6
2016-Jul-23 21:34N 55°48' E 012°42'1010.2
2016-Jul-23 20:33N 55°58' E 012°38'8 8.4
2016-Jul-23 19:33N 56°06' E 012°33'1010.1
2016-Jul-23 18:33N 56°12' E 012°19'1111.0
2016-Jul-23 17:33N 56°18' E 012°03'1211.6
2016-Jul-23 16:33N 56°30' E 011°58'1111.3
2016-Jul-23 15:33N 56°41' E 011°53'1111.4
2016-Jul-23 14:33N 56°52' E 011°47'1111.3
2016-Jul-23 13:33N 57°02' E 011°40'1111.2
2016-Jul-23 12:33N 57°13' E 011°33'1111.2
2016-Jul-23 11:33N 57°24' E 011°28'1010.5
2016-Jul-23 10:33N 57°33' E 011°35'4 3.8
2016-Jul-23 09:33N 57°35' E 011°41'0 0.0
2016-Jul-23 08:33N 57°35' E 011°41'0 0.0
2016-Jul-23 07:33N 57°35' E 011°41'0 0.5
2016-Jul-23 06:33N 57°35' E 011°40'19 9.5
2016-Jul-23 04:33N 57°37' E 011°05'1111.3
2016-Jul-23 03:33N 57°45' E 010°50'1111.2
2016-Jul-23 02:31N 57°46' E 010°29'2311.7
2016-Jul-23 00:33N 57°38' E 009°48'6911.5
2016-Jul-22 18:31N 56°59' E 008°03'7411.8
2016-Jul-22 12:16N 55°54' E 006°56'811.7
2016-Jul-22 11:33N 55°47' E 006°49'1111.4
2016-Jul-22 10:33N 55°37' E 006°39'1110.8
2016-Jul-22 09:33N 55°28' E 006°29'2911.7
2016-Jul-22 07:07N 55°03' E 006°04'4611.6
2016-Jul-22 03:10N 54°23' E 005°25'711.3
2016-Jul-22 02:33N 54°17' E 005°19'1111.5
2016-Jul-22 01:33N 54°07' E 005°09'1211.7
2016-Jul-22 00:31N 53°56' E 005°02'1111.8
2016-Jul-21 23:33N 53°45' E 004°56'1211.8
2016-Jul-21 22:33N 53°34' E 004°49'2912.1
2016-Jul-21 20:08N 53°07' E 004°29'813.1
2016-Jul-21 19:30N 53°00' E 004°21'1212.9
2016-Jul-21 18:32N 52°49' E 004°12'1313.2
2016-Jul-21 17:33N 52°41' E 003°56'2712.8
2016-Jul-21 15:24N 52°17' E 003°32'1813.5
2016-Jul-21 14:04N 52°00' E 003°24'1013.2
2016-Jul-21 13:17N 51°50' E 003°20'3 3.7
2016-Jul-21 12:33N 51°48' E 003°19'0 0.0
2016-Jul-21 09:17N 51°48' E 003°19'0 0.1
2016-Jul-21 07:25N 51°48' E 003°19'0 0.0
2016-Jul-21 06:31N 51°48' E 003°19'0 0.0
2016-Jul-21 05:30N 51°48' E 003°19'0 0.0
2016-Jul-21 04:33N 51°48' E 003°19'0 0.0
2016-Jul-21 03:17N 51°48' E 003°19'0 0.0
2016-Jul-21 02:17N 51°48' E 003°19'0 0.0
2016-Jul-21 01:04N 51°48' E 003°19'0 0.0
2016-Jul-21 00:28N 51°48' E 003°19'0 0.1
2016-Jul-20 22:21N 51°48' E 003°19'0 0.0
2016-Jul-20 19:29N 51°48' E 003°19'0 0.0
2016-Jul-20 18:25N 51°48' E 003°19'0 0.0
2016-Jul-20 17:33N 51°48' E 003°19'7 7.3
2016-Jul-20 16:32N 51°40' E 003°19'1414.2
2016-Jul-20 15:33N 51°28' E 003°31'1212.3
2016-Jul-20 14:33N 51°21' E 003°47'4 4.0
2016-Jul-20 13:33N 51°18' E 003°50'2 1.5
2016-Jul-20 12:32N 51°16' E 003°51'0 0.0
2016-Jul-20 11:29N 51°16' E 003°51'0 0.0
2016-Jul-20 10:28N 51°16' E 003°51'0 0.0
2016-Jul-20 09:31N 51°16' E 003°51'0 0.0
2016-Jul-20 08:30N 51°16' E 003°51'0 0.0
2016-Jul-20 07:33N 51°16' E 003°51'0 0.0
2016-Jul-20 06:33N 51°16' E 003°51'0 0.0
2016-Jul-20 05:32N 51°16' E 003°51'0 0.0
2016-Jul-20 04:32N 51°16' E 003°51'0 0.0
2016-Jul-20 03:28N 51°16' E 003°51'0 0.0
2016-Jul-20 02:28N 51°16' E 003°51'0 0.0
2016-Jul-20 01:30N 51°16' E 003°51'0 0.0
2016-Jul-20 00:33N 51°16' E 003°51'0 0.0
2016-Jul-19 23:33N 51°16' E 003°51'0 0.0
2016-Jul-19 22:29N 51°16' E 003°51'0 0.0
2016-Jul-19 21:29N 51°16' E 003°51'0 0.0
2016-Jul-19 20:31N 51°16' E 003°51'0 0.0
2016-Jul-19 19:31N 51°16' E 003°51'0 0.0
2016-Jul-19 18:33N 51°16' E 003°51'0 0.0
2016-Jul-19 17:33N 51°16' E 003°51'0 0.0
2016-Jul-19 16:32N 51°16' E 003°51'0 0.0
2016-Jul-19 15:32N 51°16' E 003°51'0 0.0
2016-Jul-19 14:32N 51°16' E 003°51'0 0.0
2016-Jul-19 13:28N 51°16' E 003°51'0 0.0
2016-Jul-19 12:31N 51°16' E 003°51'0 0.0
2016-Jul-19 11:27N 51°16' E 003°51'  
Track history (hours):
 
Tides and Currents Weather Stations Pressure Air Temp Water Temp Dewpoint Dewpoint Depression Visibility Wind Speed Wind Dir Waves Ship Positions

Cathma

Last reported at 2016-Jul-29 11:24 UTC. Time now 2016-Jul-30 20:40 UTC.
Position N 59°35' E 021°14'.

Length 112 m; draft 6.5 m.

Type: Cargo ship. MMSI: 306832000.

Date/timePositionNaut miles runAvg speedWind from/ knotsBaromVisibWave heightAir tempDewpointWater temp
2016-Jul-29 11:24N 59°35' E 021°14'910.4
2016-Jul-29 10:33N 59°35' E 021°31'1010.5
2016-Jul-29 09:34N 59°36' E 021°52'3310.7
2016-Jul-29 06:29N 59°38' E 022°57'1010.6
2016-Jul-29 05:34N 59°39' E 023°16'1110.7
2016-Jul-29 04:33N 59°42' E 023°37'1111.0
2016-Jul-29 03:34N 59°44' E 023°58'6710.7
2016-Jul-28 21:20N 59°58' E 026°08'910.9
2016-Jul-28 20:30N 60°00' E 026°26'1010.7
2016-Jul-28 19:33N 60°01' E 026°46'2410.5
2016-Jul-28 17:15N 60°08' E 027°32'811.1
2016-Jul-28 16:33N 60°12' E 027°45'1111.1
2016-Jul-28 15:33N 60°09' E 028°07'1111.0
2016-Jul-28 14:33N 60°04' E 028°27'1111.0
2016-Jul-28 13:33N 60°03' E 028°48'3110.4
2016-Jul-28 10:33N 59°57' E 029°50'1010.1
2016-Jul-28 09:33N 59°54' E 030°09'2 1.4
2016-Jul-28 08:28N 59°53' E 030°11'0 0.1
2016-Jul-28 07:33N 59°53' E 030°11'0 0.0
2016-Jul-28 06:30N 59°53' E 030°11'0 0.0
2016-Jul-28 05:32N 59°53' E 030°11'0 0.1
2016-Jul-28 04:32N 59°53' E 030°11'0 0.0
2016-Jul-28 03:29N 59°53' E 030°11'0 0.0
2016-Jul-28 02:31N 59°53' E 030°11'0 0.0
2016-Jul-28 01:31N 59°53' E 030°11'0 0.0
2016-Jul-28 00:33N 59°53' E 030°11'0 0.0
2016-Jul-27 23:33N 59°53' E 030°11'0 0.0
2016-Jul-27 22:32N 59°53' E 030°11'0 0.0
2016-Jul-27 21:29N 59°53' E 030°11'0 0.0
2016-Jul-27 20:32N 59°53' E 030°11'0 0.0
2016-Jul-27 19:31N 59°53' E 030°11'0 0.0
2016-Jul-27 18:31N 59°53' E 030°11'0 0.0
2016-Jul-27 17:33N 59°53' E 030°11'0 0.0
2016-Jul-27 16:33N 59°53' E 030°11'0 0.1
2016-Jul-27 15:32N 59°53' E 030°11'2 2.3
2016-Jul-27 14:33N 59°54' E 030°07'1111.1
2016-Jul-27 13:33N 59°58' E 029°47'1110.9
2016-Jul-27 12:33N 60°01' E 029°26'3 0.8
2016-Jul-27 08:32N 60°01' E 029°19'0 0.0
2016-Jul-27 00:17N 60°01' E 029°19'0 0.0
2016-Jul-26 22:19N 60°01' E 029°19'0 0.0
2016-Jul-26 21:13N 60°01' E 029°19'0 0.0
2016-Jul-26 15:31N 60°01' E 029°19'0 0.0
2016-Jul-26 13:06N 60°01' E 029°19'0 0.1
2016-Jul-26 12:28N 60°01' E 029°19'6 6.4
2016-Jul-26 11:34N 60°02' E 029°08'1110.7
2016-Jul-26 10:33N 60°02' E 028°46'1110.8
2016-Jul-26 09:33N 60°03' E 028°25'1010.4
2016-Jul-26 08:33N 60°08' E 028°06'1110.6
2016-Jul-26 07:33N 60°10' E 027°46'1110.7
2016-Jul-26 06:33N 60°05' E 027°27'1110.5
2016-Jul-26 05:33N 59°59' E 027°09'1010.0
2016-Jul-26 04:33N 59°59' E 026°49'1010.1
2016-Jul-26 03:34N 59°58' E 026°29'1010.3
2016-Jul-26 02:34N 59°55' E 026°09'1010.3
2016-Jul-26 01:33N 59°52' E 025°50'1010.5
2016-Jul-26 00:33N 59°50' E 025°29'1110.7
2016-Jul-25 23:34N 59°48' E 025°08'1110.6
2016-Jul-25 22:34N 59°46' E 024°48'1110.4
2016-Jul-25 21:31N 59°44' E 024°27'9 9.8
2016-Jul-25 20:33N 59°41' E 024°09'1010.0
2016-Jul-25 19:33N 59°38' E 023°50'1010.3
2016-Jul-25 18:33N 59°34' E 023°31'1010.5
2016-Jul-25 17:33N 59°31' E 023°11'33710.8
2016-Jul-24 10:19N 55°41' E 015°33'1011.6
2016-Jul-24 09:28N 55°36' E 015°17'1011.3
2016-Jul-24 08:33N 55°31' E 015°02'1111.2
2016-Jul-24 07:33N 55°25' E 014°44'1111.2
2016-Jul-24 06:34N 55°18' E 014°30'1110.6
2016-Jul-24 05:34N 55°11' E 014°16'1111.1
2016-Jul-24 04:33N 55°11' E 013°56'1111.1
2016-Jul-24 03:33N 55°12' E 013°37'1110.9
2016-Jul-24 02:33N 55°13' E 013°18'1111.0
2016-Jul-24 01:33N 55°15' E 012°58'1111.0
2016-Jul-24 00:33N 55°17' E 012°40'1010.4
2016-Jul-23 23:33N 55°28' E 012°41'1010.4
2016-Jul-23 22:33N 55°38' E 012°42'10 9.6
2016-Jul-23 21:34N 55°48' E 012°42'1010.2
2016-Jul-23 20:33N 55°58' E 012°38'8 8.4
2016-Jul-23 19:33N 56°06' E 012°33'1010.1
2016-Jul-23 18:33N 56°12' E 012°19'1111.0
2016-Jul-23 17:33N 56°18' E 012°03'1211.6
2016-Jul-23 16:33N 56°30' E 011°58'1111.3
2016-Jul-23 15:33N 56°41' E 011°53'1111.4
2016-Jul-23 14:33N 56°52' E 011°47'1111.3
2016-Jul-23 13:33N 57°02' E 011°40'1111.2
2016-Jul-23 12:33N 57°13' E 011°33'1111.2
2016-Jul-23 11:33N 57°24' E 011°28'1010.5
2016-Jul-23 10:33N 57°33' E 011°35'4 3.8
2016-Jul-23 09:33N 57°35' E 011°41'0 0.0
2016-Jul-23 08:33N 57°35' E 011°41'0 0.0
2016-Jul-23 07:33N 57°35' E 011°41'0 0.5
2016-Jul-23 06:33N 57°35' E 011°40'19 9.5
2016-Jul-23 04:33N 57°37' E 011°05'1111.3
2016-Jul-23 03:33N 57°45' E 010°50'1111.2
2016-Jul-23 02:31N 57°46' E 010°29'2311.7
2016-Jul-23 00:33N 57°38' E 009°48'6911.5
2016-Jul-22 18:31N 56°59' E 008°03'7411.8
2016-Jul-22 12:16N 55°54' E 006°56'811.7
2016-Jul-22 11:33N 55°47' E 006°49'1111.4
2016-Jul-22 10:33N 55°37' E 006°39'1110.8
2016-Jul-22 09:33N 55°28' E 006°29'2911.7
2016-Jul-22 07:07N 55°03' E 006°04'4611.6
2016-Jul-22 03:10N 54°23' E 005°25'711.3
2016-Jul-22 02:33N 54°17' E 005°19'1111.5
2016-Jul-22 01:33N 54°07' E 005°09'1211.7
2016-Jul-22 00:31N 53°56' E 005°02'1111.8
2016-Jul-21 23:33N 53°45' E 004°56'1211.8
2016-Jul-21 22:33N 53°34' E 004°49'2912.1
2016-Jul-21 20:08N 53°07' E 004°29'813.1
2016-Jul-21 19:30N 53°00' E 004°21'1212.9
2016-Jul-21 18:32N 52°49' E 004°12'1313.2
2016-Jul-21 17:33N 52°41' E 003°56'2712.8
2016-Jul-21 15:24N 52°17' E 003°32'1813.5
2016-Jul-21 14:04N 52°00' E 003°24'1013.2
2016-Jul-21 13:17N 51°50' E 003°20'3 3.7
2016-Jul-21 12:33N 51°48' E 003°19'0 0.0
2016-Jul-21 09:17N 51°48' E 003°19'0 0.1
2016-Jul-21 07:25N 51°48' E 003°19'0 0.0
2016-Jul-21 06:31N 51°48' E 003°19'0 0.0
2016-Jul-21 05:30N 51°48' E 003°19'0 0.0
2016-Jul-21 04:33N 51°48' E 003°19'0 0.0
2016-Jul-21 03:17N 51°48' E 003°19'0 0.0
2016-Jul-21 02:17N 51°48' E 003°19'0 0.0
2016-Jul-21 01:04N 51°48' E 003°19'0 0.0
2016-Jul-21 00:28N 51°48' E 003°19'0 0.1
2016-Jul-20 22:21N 51°48' E 003°19'0 0.0
2016-Jul-20 19:29N 51°48' E 003°19'0 0.0
2016-Jul-20 18:25N 51°48' E 003°19'0 0.0
2016-Jul-20 17:33N 51°48' E 003°19'7 7.3
2016-Jul-20 16:32N 51°40' E 003°19'1414.2
2016-Jul-20 15:33N 51°28' E 003°31'1212.3
2016-Jul-20 14:33N 51°21' E 003°47'4 4.0
2016-Jul-20 13:33N 51°18' E 003°50'2 1.5
2016-Jul-20 12:32N 51°16' E 003°51'0 0.0
2016-Jul-20 11:29N 51°16' E 003°51'0 0.0
2016-Jul-20 10:28N 51°16' E 003°51'0 0.0
2016-Jul-20 09:31N 51°16' E 003°51'0 0.0
2016-Jul-20 08:30N 51°16' E 003°51'0 0.0
2016-Jul-20 07:33N 51°16' E 003°51'0 0.0
2016-Jul-20 06:33N 51°16' E 003°51'0 0.0
2016-Jul-20 05:32N 51°16' E 003°51'0 0.0
2016-Jul-20 04:32N 51°16' E 003°51'0 0.0
2016-Jul-20 03:28N 51°16' E 003°51'0 0.0
2016-Jul-20 02:28N 51°16' E 003°51'0 0.0
2016-Jul-20 01:30N 51°16' E 003°51'0 0.0
2016-Jul-20 00:33N 51°16' E 003°51'0 0.0
2016-Jul-19 23:33N 51°16' E 003°51'0 0.0
2016-Jul-19 22:29N 51°16' E 003°51'0 0.0
2016-Jul-19 21:29N 51°16' E 003°51'0 0.0
2016-Jul-19 20:31N 51°16' E 003°51'0 0.0
2016-Jul-19 19:31N 51°16' E 003°51'0 0.0
2016-Jul-19 18:33N 51°16' E 003°51'0 0.0
2016-Jul-19 17:33N 51°16' E 003°51'0 0.0
2016-Jul-19 16:32N 51°16' E 003°51'0 0.0
2016-Jul-19 15:32N 51°16' E 003°51'0 0.0
2016-Jul-19 14:32N 51°16' E 003°51'0 0.0
2016-Jul-19 13:28N 51°16' E 003°51'0 0.0
2016-Jul-19 12:31N 51°16' E 003°51'0 0.0
2016-Jul-19 11:27N 51°16' E 003°51'  

Dump ship's entire track history